sensor_id;sensor_type;location;lat;lon;timestamp;pressure;altitude;pressure_sealevel;temperature
71081;BMP180;58740;50.672;18.690;2024-02-14T00:01:24;99478.40;;;1.70
71081;BMP180;58740;50.672;18.690;2024-02-14T00:04:03;99479.60;;;1.72
71081;BMP180;58740;50.672;18.690;2024-02-14T00:06:59;99483.00;;;1.80
71081;BMP180;58740;50.672;18.690;2024-02-14T00:09:38;99490.00;;;1.80
71081;BMP180;58740;50.672;18.690;2024-02-14T00:12:32;99497.60;;;1.80
71081;BMP180;58740;50.672;18.690;2024-02-14T00:15:13;99494.20;;;1.80
71081;BMP180;58740;50.672;18.690;2024-02-14T00:18:06;99494.80;;;1.80
71081;BMP180;58740;50.672;18.690;2024-02-14T00:20:52;99492.40;;;1.90
71081;BMP180;58740;50.672;18.690;2024-02-14T00:23:39;99493.80;;;1.90
71081;BMP180;58740;50.672;18.690;2024-02-14T00:26:25;99491.00;;;1.90
71081;BMP180;58740;50.672;18.690;2024-02-14T00:29:11;99490.20;;;1.94
71081;BMP180;58740;50.672;18.690;2024-02-14T00:31:57;99493.60;;;2.00
71081;BMP180;58740;50.672;18.690;2024-02-14T00:34:43;99491.60;;;2.00
71081;BMP180;58740;50.672;18.690;2024-02-14T00:37:30;99499.20;;;2.00
71081;BMP180;58740;50.672;18.690;2024-02-14T00:40:23;99493.40;;;2.00
71081;BMP180;58740;50.672;18.690;2024-02-14T00:43:03;99492.00;;;2.08
71081;BMP180;58740;50.672;18.690;2024-02-14T00:45:57;99500.00;;;2.10
71081;BMP180;58740;50.672;18.690;2024-02-14T00:48:36;99497.00;;;2.20
71081;BMP180;58740;50.672;18.690;2024-02-14T00:51:29;99499.40;;;2.20
71081;BMP180;58740;50.672;18.690;2024-02-14T00:54:08;99505.00;;;2.20
71081;BMP180;58740;50.672;18.690;2024-02-14T00:57:09;99496.60;;;2.20
71081;BMP180;58740;50.672;18.690;2024-02-14T01:00:11;99492.40;;;2.20
71081;BMP180;58740;50.672;18.690;2024-02-14T01:02:51;99489.40;;;2.20
71081;BMP180;58740;50.672;18.690;2024-02-14T01:05:45;99487.40;;;2.26
71081;BMP180;58740;50.672;18.690;2024-02-14T01:08:24;99486.60;;;2.30
71081;BMP180;58740;50.672;18.690;2024-02-14T01:11:26;99479.40;;;2.30
71081;BMP180;58740;50.672;18.690;2024-02-14T01:14:26;99479.20;;;2.30
71081;BMP180;58740;50.672;18.690;2024-02-14T01:17:06;99475.80;;;2.28
71081;BMP180;58740;50.672;18.690;2024-02-14T01:20:08;99476.40;;;2.30
71081;BMP180;58740;50.672;18.690;2024-02-14T01:22:47;99472.80;;;2.30
71081;BMP180;58740;50.672;18.690;2024-02-14T01:25:41;99475.20;;;2.30
71081;BMP180;58740;50.672;18.690;2024-02-14T01:28:22;99469.00;;;2.30
71081;BMP180;58740;50.672;18.690;2024-02-14T01:31:23;99470.80;;;2.36
71081;BMP180;58740;50.672;18.690;2024-02-14T01:34:02;99460.80;;;2.40
71081;BMP180;58740;50.672;18.690;2024-02-14T01:37:03;99467.20;;;2.40
71081;BMP180;58740;50.672;18.690;2024-02-14T01:40:03;99464.80;;;2.42
71081;BMP180;58740;50.672;18.690;2024-02-14T01:42:45;99465.20;;;2.44
71081;BMP180;58740;50.672;18.690;2024-02-14T01:45:46;99467.60;;;2.50
71081;BMP180;58740;50.672;18.690;2024-02-14T01:48:46;99462.40;;;2.50
71081;BMP180;58740;50.672;18.690;2024-02-14T01:51:27;99465.60;;;2.50
71081;BMP180;58740;50.672;18.690;2024-02-14T01:54:28;99465.60;;;2.46
71081;BMP180;58740;50.672;18.690;2024-02-14T01:57:29;99462.00;;;2.40
71081;BMP180;58740;50.672;18.690;2024-02-14T02:00:12;99462.40;;;2.40
71081;BMP180;58740;50.672;18.690;2024-02-14T02:03:05;99459.00;;;2.40
71081;BMP180;58740;50.672;18.690;2024-02-14T02:05:45;99461.60;;;2.40
71081;BMP180;58740;50.672;18.690;2024-02-14T02:08:39;99462.80;;;2.40
71081;BMP180;58740;50.672;18.690;2024-02-14T02:11:18;99468.00;;;2.40
71081;BMP180;58740;50.672;18.690;2024-02-14T02:14:19;99470.20;;;2.40
71081;BMP180;58740;50.672;18.690;2024-02-14T02:16:59;99465.40;;;2.40
71081;BMP180;58740;50.672;18.690;2024-02-14T02:19:58;99467.80;;;2.40
71081;BMP180;58740;50.672;18.690;2024-02-14T02:25:36;99466.80;;;2.40
71081;BMP180;58740;50.672;18.690;2024-02-14T02:28:15;99473.40;;;2.44
71081;BMP180;58740;50.672;18.690;2024-02-14T02:31:09;99472.00;;;2.48
71081;BMP180;58740;50.672;18.690;2024-02-14T02:33:48;99469.60;;;2.50
71081;BMP180;58740;50.672;18.690;2024-02-14T02:36:43;99469.40;;;2.50
71081;BMP180;58740;50.672;18.690;2024-02-14T02:39:24;99470.80;;;2.50
71081;BMP180;58740;50.672;18.690;2024-02-14T02:42:25;99472.20;;;2.50
71081;BMP180;58740;50.672;18.690;2024-02-14T02:45:05;99470.60;;;2.50
71081;BMP180;58740;50.672;18.690;2024-02-14T02:47:59;99472.20;;;2.60
71081;BMP180;58740;50.672;18.690;2024-02-14T02:50:39;99468.60;;;2.60
71081;BMP180;58740;50.672;18.690;2024-02-14T02:53:41;99472.80;;;2.60
71081;BMP180;58740;50.672;18.690;2024-02-14T02:56:41;99470.40;;;2.60
71081;BMP180;58740;50.672;18.690;2024-02-14T02:59:21;99478.80;;;2.60
71081;BMP180;58740;50.672;18.690;2024-02-14T03:02:15;99482.20;;;2.60
71081;BMP180;58740;50.672;18.690;2024-02-14T03:04:55;99489.00;;;2.60
71081;BMP180;58740;50.672;18.690;2024-02-14T03:07:50;99484.80;;;2.56
71081;BMP180;58740;50.672;18.690;2024-02-14T03:10:31;99479.60;;;2.50
71081;BMP180;58740;50.672;18.690;2024-02-14T03:13:26;99489.60;;;2.50
71081;BMP180;58740;50.672;18.690;2024-02-14T03:16:07;99483.80;;;2.50
71081;BMP180;58740;50.672;18.690;2024-02-14T03:19:09;99494.60;;;2.50
71081;BMP180;58740;50.672;18.690;2024-02-14T03:22:09;99495.40;;;2.50
71081;BMP180;58740;50.672;18.690;2024-02-14T03:24:49;99494.80;;;2.50
71081;BMP180;58740;50.672;18.690;2024-02-14T03:27:50;99498.40;;;2.46
71081;BMP180;58740;50.672;18.690;2024-02-14T03:30:51;99500.40;;;2.40
71081;BMP180;58740;50.672;18.690;2024-02-14T03:33:31;99505.40;;;2.40
71081;BMP180;58740;50.672;18.690;2024-02-14T03:36:25;99505.60;;;2.40
71081;BMP180;58740;50.672;18.690;2024-02-14T03:39:07;99509.60;;;2.30
71081;BMP180;58740;50.672;18.690;2024-02-14T03:42:09;99509.80;;;2.30
71081;BMP180;58740;50.672;18.690;2024-02-14T03:45:11;99506.80;;;2.20
71081;BMP180;58740;50.672;18.690;2024-02-14T03:47:52;99510.00;;;2.20
71081;BMP180;58740;50.672;18.690;2024-02-14T03:50:46;99510.20;;;2.12
71081;BMP180;58740;50.672;18.690;2024-02-14T03:53:46;99520.60;;;2.10
71081;BMP180;58740;50.672;18.690;2024-02-14T03:56:46;99515.80;;;2.10
71081;BMP180;58740;50.672;18.690;2024-02-14T03:59:25;99510.80;;;2.00
71081;BMP180;58740;50.672;18.690;2024-02-14T04:02:21;99510.60;;;2.00
71081;BMP180;58740;50.672;18.690;2024-02-14T04:05:01;99519.20;;;2.00
71081;BMP180;58740;50.672;18.690;2024-02-14T04:07:55;99514.00;;;1.96
71081;BMP180;58740;50.672;18.690;2024-02-14T04:10:34;99513.40;;;1.90
71081;BMP180;58740;50.672;18.690;2024-02-14T04:13:29;99511.40;;;1.90
71081;BMP180;58740;50.672;18.690;2024-02-14T04:16:09;99512.60;;;1.90
71081;BMP180;58740;50.672;18.690;2024-02-14T04:19:02;99509.60;;;1.90
71081;BMP180;58740;50.672;18.690;2024-02-14T04:21:41;99514.20;;;1.90
71081;BMP180;58740;50.672;18.690;2024-02-14T04:24:42;99517.40;;;1.90
71081;BMP180;58740;50.672;18.690;2024-02-14T04:27:42;99520.20;;;1.86
71081;BMP180;58740;50.672;18.690;2024-02-14T04:30:21;99521.20;;;1.80
71081;BMP180;58740;50.672;18.690;2024-02-14T04:33:22;99521.80;;;1.80
71081;BMP180;58740;50.672;18.690;2024-02-14T04:36:22;99520.80;;;1.80
71081;BMP180;58740;50.672;18.690;2024-02-14T04:39:23;99524.80;;;1.70
71081;BMP180;58740;50.672;18.690;2024-02-14T04:42:02;99519.80;;;1.70
71081;BMP180;58740;50.672;18.690;2024-02-14T04:44:56;99513.60;;;1.68
71081;BMP180;58740;50.672;18.690;2024-02-14T04:47:36;99515.60;;;1.62
71081;BMP180;58740;50.672;18.690;2024-02-14T04:50:37;99506.20;;;1.60
71081;BMP180;58740;50.672;18.690;2024-02-14T04:53:37;99502.60;;;1.60
71081;BMP180;58740;50.672;18.690;2024-02-14T04:56:16;99503.20;;;1.58
71081;BMP180;58740;50.672;18.690;2024-02-14T04:59:17;99505.20;;;1.54
71081;BMP180;58740;50.672;18.690;2024-02-14T05:02:03;99508.40;;;1.50
71081;BMP180;58740;50.672;18.690;2024-02-14T05:04:50;99507.40;;;1.50
71081;BMP180;58740;50.672;18.690;2024-02-14T05:07:36;99509.20;;;1.50
71081;BMP180;58740;50.672;18.690;2024-02-14T05:10:22;99512.80;;;1.42
71081;BMP180;58740;50.672;18.690;2024-02-14T05:13:08;99513.40;;;1.40
71081;BMP180;58740;50.672;18.690;2024-02-14T05:15:55;99514.40;;;1.40
71081;BMP180;58740;50.672;18.690;2024-02-14T05:18:41;99512.00;;;1.40
71081;BMP180;58740;50.672;18.690;2024-02-14T05:21:34;99516.80;;;1.40
71081;BMP180;58740;50.672;18.690;2024-02-14T05:24:20;99513.80;;;1.40
71081;BMP180;58740;50.672;18.690;2024-02-14T05:27:14;99517.40;;;1.38
71081;BMP180;58740;50.672;18.690;2024-02-14T05:30:00;99515.40;;;1.30
71081;BMP180;58740;50.672;18.690;2024-02-14T05:32:48;99512.40;;;1.30
71081;BMP180;58740;50.672;18.690;2024-02-14T05:35:34;99517.00;;;1.30
71081;BMP180;58740;50.672;18.690;2024-02-14T05:38:28;99510.80;;;1.30
71081;BMP180;58740;50.672;18.690;2024-02-14T05:41:08;99519.40;;;1.30
71081;BMP180;58740;50.672;18.690;2024-02-14T05:44:03;99520.20;;;1.30
71081;BMP180;58740;50.672;18.690;2024-02-14T05:46:43;99526.40;;;1.30
71081;BMP180;58740;50.672;18.690;2024-02-14T05:49:36;99523.20;;;1.32
71081;BMP180;58740;50.672;18.690;2024-02-14T05:52:30;99527.60;;;1.30
71081;BMP180;58740;50.672;18.690;2024-02-14T05:55:30;99528.00;;;1.30
71081;BMP180;58740;50.672;18.690;2024-02-14T05:58:10;99535.80;;;1.30
71081;BMP180;58740;50.672;18.690;2024-02-14T06:01:04;99531.60;;;1.30
71081;BMP180;58740;50.672;18.690;2024-02-14T06:03:50;99529.40;;;1.28
71081;BMP180;58740;50.672;18.690;2024-02-14T06:06:36;99527.40;;;1.26
71081;BMP180;58740;50.672;18.690;2024-02-14T06:09:23;99520.00;;;1.30
71081;BMP180;58740;50.672;18.690;2024-02-14T06:12:16;99519.40;;;1.30
71081;BMP180;58740;50.672;18.690;2024-02-14T06:14:56;99520.60;;;1.30
71081;BMP180;58740;50.672;18.690;2024-02-14T06:17:50;99524.40;;;1.30
71081;BMP180;58740;50.672;18.690;2024-02-14T06:20:36;99523.20;;;1.30
71081;BMP180;58740;50.672;18.690;2024-02-14T06:23:22;99524.40;;;1.30
71081;BMP180;58740;50.672;18.690;2024-02-14T06:26:08;99524.20;;;1.30
71081;BMP180;58740;50.672;18.690;2024-02-14T06:28:54;99526.00;;;1.30
71081;BMP180;58740;50.672;18.690;2024-02-14T06:31:42;99530.00;;;1.30
71081;BMP180;58740;50.672;18.690;2024-02-14T06:34:29;99533.00;;;1.34
71081;BMP180;58740;50.672;18.690;2024-02-14T06:37:15;99532.40;;;1.40
71081;BMP180;58740;50.672;18.690;2024-02-14T06:40:01;99533.00;;;1.40
71081;BMP180;58740;50.672;18.690;2024-02-14T06:42:48;99543.60;;;1.50
71081;BMP180;58740;50.672;18.690;2024-02-14T06:45:38;99541.00;;;1.50
71081;BMP180;58740;50.672;18.690;2024-02-14T06:48:24;99540.60;;;1.58
71081;BMP180;58740;50.672;18.690;2024-02-14T06:51:10;99540.60;;;1.60
71081;BMP180;58740;50.672;18.690;2024-02-14T06:53:57;99542.60;;;1.60
71081;BMP180;58740;50.672;18.690;2024-02-14T06:56:44;99540.80;;;1.70
71081;BMP180;58740;50.672;18.690;2024-02-14T06:59:31;99543.00;;;1.70
71081;BMP180;58740;50.672;18.690;2024-02-14T07:02:17;99544.00;;;1.74
71081;BMP180;58740;50.672;18.690;2024-02-14T07:05:03;99552.60;;;1.80
71081;BMP180;58740;50.672;18.690;2024-02-14T07:07:53;99542.20;;;1.90
71081;BMP180;58740;50.672;18.690;2024-02-14T07:10:39;99547.00;;;2.00
71081;BMP180;58740;50.672;18.690;2024-02-14T07:13:25;99551.20;;;2.10
71081;BMP180;58740;50.672;18.690;2024-02-14T07:16:11;99551.80;;;2.20
71081;BMP180;58740;50.672;18.690;2024-02-14T07:18:58;99548.20;;;2.30
71081;BMP180;58740;50.672;18.690;2024-02-14T07:21:44;99553.20;;;2.40
71081;BMP180;58740;50.672;18.690;2024-02-14T07:24:30;99554.80;;;2.50
71081;BMP180;58740;50.672;18.690;2024-02-14T07:27:17;99546.80;;;2.56
71081;BMP180;58740;50.672;18.690;2024-02-14T07:30:04;99547.60;;;2.60
71081;BMP180;58740;50.672;18.690;2024-02-14T07:32:51;99549.80;;;2.70
71081;BMP180;58740;50.672;18.690;2024-02-14T07:35:44;99547.20;;;2.76
71081;BMP180;58740;50.672;18.690;2024-02-14T07:38:26;99546.00;;;2.80
71081;BMP180;58740;50.672;18.690;2024-02-14T07:41:19;99549.00;;;2.90
71081;BMP180;58740;50.672;18.690;2024-02-14T07:43:59;99549.00;;;2.90
71081;BMP180;58740;50.672;18.690;2024-02-14T07:46:53;99553.60;;;3.00
71081;BMP180;58740;50.672;18.690;2024-02-14T07:49:35;99549.20;;;3.10
71081;BMP180;58740;50.672;18.690;2024-02-14T07:52:36;99552.20;;;3.14
71081;BMP180;58740;50.672;18.690;2024-02-14T07:55:37;99555.20;;;3.20
71081;BMP180;58740;50.672;18.690;2024-02-14T07:58:37;99552.80;;;3.30
71081;BMP180;58740;50.672;18.690;2024-02-14T08:01:37;99559.60;;;3.34
71081;BMP180;58740;50.672;18.690;2024-02-14T08:04:44;99564.00;;;3.40
71081;BMP180;58740;50.672;18.690;2024-02-14T08:07:45;99566.60;;;3.44
71081;BMP180;58740;50.672;18.690;2024-02-14T08:10:46;99565.00;;;3.48
71081;BMP180;58740;50.672;18.690;2024-02-14T08:13:25;99571.80;;;3.50
71081;BMP180;58740;50.672;18.690;2024-02-14T08:16:26;99571.20;;;3.52
71081;BMP180;58740;50.672;18.690;2024-02-14T08:19:26;99567.20;;;3.60
71081;BMP180;58740;50.672;18.690;2024-02-14T08:22:05;99556.80;;;3.66
71081;BMP180;58740;50.672;18.690;2024-02-14T08:25:07;99562.00;;;3.70
71081;BMP180;58740;50.672;18.690;2024-02-14T08:27:47;99560.40;;;3.70
71081;BMP180;58740;50.672;18.690;2024-02-14T08:30:41;99552.00;;;3.78
71081;BMP180;58740;50.672;18.690;2024-02-14T08:33:21;99551.60;;;3.80
71081;BMP180;58740;50.672;18.690;2024-02-14T08:36:15;99552.80;;;3.90
71081;BMP180;58740;50.672;18.690;2024-02-14T08:39:04;99551.60;;;4.00
71081;BMP180;58740;50.672;18.690;2024-02-14T08:41:52;99549.40;;;4.04
71081;BMP180;58740;50.672;18.690;2024-02-14T08:44:38;99544.20;;;4.10
71081;BMP180;58740;50.672;18.690;2024-02-14T08:47:24;99547.00;;;4.10
71081;BMP180;58740;50.672;18.690;2024-02-14T08:50:19;99544.40;;;4.16
71081;BMP180;58740;50.672;18.690;2024-02-14T08:53:19;99549.40;;;4.20
71081;BMP180;58740;50.672;18.690;2024-02-14T08:55:59;99543.20;;;4.24
71081;BMP180;58740;50.672;18.690;2024-02-14T08:58:53;99543.60;;;4.30
71081;BMP180;58740;50.672;18.690;2024-02-14T09:01:33;99545.80;;;4.32
71081;BMP180;58740;50.672;18.690;2024-02-14T09:04:33;99537.20;;;4.40
71081;BMP180;58740;50.672;18.690;2024-02-14T09:07:14;99536.40;;;4.50
71081;BMP180;58740;50.672;18.690;2024-02-14T09:10:09;99539.40;;;4.60
71081;BMP180;58740;50.672;18.690;2024-02-14T09:12:58;99547.60;;;4.68
71081;BMP180;58740;50.672;18.690;2024-02-14T09:15:52;99547.60;;;4.70
71081;BMP180;58740;50.672;18.690;2024-02-14T09:18:33;99547.20;;;4.80
71081;BMP180;58740;50.672;18.690;2024-02-14T09:21:26;99542.40;;;4.90
71081;BMP180;58740;50.672;18.690;2024-02-14T09:24:07;99537.00;;;5.00
71081;BMP180;58740;50.672;18.690;2024-02-14T09:27:00;99536.20;;;5.00
71081;BMP180;58740;50.672;18.690;2024-02-14T09:29:41;99536.60;;;5.10
71081;BMP180;58740;50.672;18.690;2024-02-14T09:32:34;99534.20;;;5.16
71081;BMP180;58740;50.672;18.690;2024-02-14T09:35:14;99534.40;;;5.20
71081;BMP180;58740;50.672;18.690;2024-02-14T09:38:07;99535.00;;;5.30
71081;BMP180;58740;50.672;18.690;2024-02-14T09:40:47;99529.60;;;5.36
71081;BMP180;58740;50.672;18.690;2024-02-14T09:43:44;99531.00;;;5.40
71081;BMP180;58740;50.672;18.690;2024-02-14T09:46:32;99531.60;;;5.50
71081;BMP180;58740;50.672;18.690;2024-02-14T09:49:29;99535.80;;;5.50
71081;BMP180;58740;50.672;18.690;2024-02-14T09:52:12;99534.40;;;5.60
71081;BMP180;58740;50.672;18.690;2024-02-14T09:55:07;99534.40;;;5.70
71081;BMP180;58740;50.672;18.690;2024-02-14T09:57:50;99536.40;;;5.70
71081;BMP180;58740;50.672;18.690;2024-02-14T10:00:43;99531.60;;;5.70
71081;BMP180;58740;50.672;18.690;2024-02-14T10:03:23;99526.80;;;5.80
71081;BMP180;58740;50.672;18.690;2024-02-14T10:06:24;99523.00;;;5.80
71081;BMP180;58740;50.672;18.690;2024-02-14T10:09:04;99517.60;;;5.90
71081;BMP180;58740;50.672;18.690;2024-02-14T10:11:57;99516.20;;;5.98
71081;BMP180;58740;50.672;18.690;2024-02-14T10:14:44;99514.20;;;6.00
71081;BMP180;58740;50.672;18.690;2024-02-14T10:17:40;99507.40;;;6.10
71081;BMP180;58740;50.672;18.690;2024-02-14T10:20:27;99499.20;;;6.10
71081;BMP180;58740;50.672;18.690;2024-02-14T10:23:14;99501.60;;;6.20
71081;BMP180;58740;50.672;18.690;2024-02-14T10:26:00;99491.40;;;6.30
71081;BMP180;58740;50.672;18.690;2024-02-14T10:28:46;99496.80;;;6.30
71081;BMP180;58740;50.672;18.690;2024-02-14T10:31:32;99490.20;;;6.40
71081;BMP180;58740;50.672;18.690;2024-02-14T10:34:25;99489.40;;;6.40
71081;BMP180;58740;50.672;18.690;2024-02-14T10:37:15;99480.00;;;6.40
71081;BMP180;58740;50.672;18.690;2024-02-14T10:40:05;99473.80;;;6.50
71081;BMP180;58740;50.672;18.690;2024-02-14T10:42:52;99477.80;;;6.50
71081;BMP180;58740;50.672;18.690;2024-02-14T10:45:54;99470.00;;;6.60
71081;BMP180;58740;50.672;18.690;2024-02-14T10:48:58;99482.40;;;6.68
71081;BMP180;58740;50.672;18.690;2024-02-14T10:51:44;99475.60;;;6.70
71081;BMP180;58740;50.672;18.690;2024-02-14T10:54:40;99483.40;;;6.70
71081;BMP180;58740;50.672;18.690;2024-02-14T10:57:25;99479.80;;;6.70
71081;BMP180;58740;50.672;18.690;2024-02-14T11:00:26;99476.20;;;6.80
71081;BMP180;58740;50.672;18.690;2024-02-14T11:03:28;99471.40;;;6.80
71081;BMP180;58740;50.672;18.690;2024-02-14T11:06:09;99467.00;;;6.80
71081;BMP180;58740;50.672;18.690;2024-02-14T11:09:08;99468.40;;;6.90
71081;BMP180;58740;50.672;18.690;2024-02-14T11:12:01;99459.40;;;6.90
71081;BMP180;58740;50.672;18.690;2024-02-14T11:15:01;99457.00;;;7.00
71081;BMP180;58740;50.672;18.690;2024-02-14T11:17:44;99451.20;;;7.00
71081;BMP180;58740;50.672;18.690;2024-02-14T11:20:45;99449.80;;;7.10
71081;BMP180;58740;50.672;18.690;2024-02-14T11:23:55;99438.00;;;7.10
71081;BMP180;58740;50.672;18.690;2024-02-14T11:26:49;99445.00;;;7.16
71081;BMP180;58740;50.672;18.690;2024-02-14T11:29:36;99444.00;;;7.20
71081;BMP180;58740;50.672;18.690;2024-02-14T11:32:27;99443.40;;;7.20
71081;BMP180;58740;50.672;18.690;2024-02-14T11:35:15;99435.40;;;7.28
71081;BMP180;58740;50.672;18.690;2024-02-14T11:38:01;99437.00;;;7.30
71081;BMP180;58740;50.672;18.690;2024-02-14T11:40:49;99438.80;;;7.30
71081;BMP180;58740;50.672;18.690;2024-02-14T11:43:35;99436.40;;;7.30
71081;BMP180;58740;50.672;18.690;2024-02-14T11:46:21;99429.60;;;7.34
71081;BMP180;58740;50.672;18.690;2024-02-14T11:49:07;99427.20;;;7.40
71081;BMP180;58740;50.672;18.690;2024-02-14T11:51:56;99427.80;;;7.40
71081;BMP180;58740;50.672;18.690;2024-02-14T11:54:47;99414.80;;;7.40
71081;BMP180;58740;50.672;18.690;2024-02-14T11:57:36;99407.40;;;7.50
71081;BMP180;58740;50.672;18.690;2024-02-14T12:00:23;99402.60;;;7.50
71081;BMP180;58740;50.672;18.690;2024-02-14T12:03:20;99400.40;;;7.50
71081;BMP180;58740;50.672;18.690;2024-02-14T12:06:00;99402.80;;;7.60
71081;BMP180;58740;50.672;18.690;2024-02-14T12:08:54;99397.00;;;7.60
71081;BMP180;58740;50.672;18.690;2024-02-14T12:11:34;99398.00;;;7.60
71081;BMP180;58740;50.672;18.690;2024-02-14T12:14:29;99403.20;;;7.60
71081;BMP180;58740;50.672;18.690;2024-02-14T12:17:16;99397.20;;;7.70
71081;BMP180;58740;50.672;18.690;2024-02-14T12:20:12;99394.00;;;7.70
71081;BMP180;58740;50.672;18.690;2024-02-14T12:22:59;99395.00;;;7.70
71081;BMP180;58740;50.672;18.690;2024-02-14T12:26:05;99390.80;;;7.70
71081;BMP180;58740;50.672;18.690;2024-02-14T12:28:48;99389.00;;;7.76
71081;BMP180;58740;50.672;18.690;2024-02-14T12:31:52;99386.00;;;7.80
71081;BMP180;58740;50.672;18.690;2024-02-14T12:34:52;99393.20;;;7.80
71081;BMP180;58740;50.672;18.690;2024-02-14T12:37:34;99393.40;;;7.80
71081;BMP180;58740;50.672;18.690;2024-02-14T12:40:29;99392.20;;;7.80
71081;BMP180;58740;50.672;18.690;2024-02-14T12:43:08;99384.40;;;7.90
71081;BMP180;58740;50.672;18.690;2024-02-14T12:46:02;99382.60;;;7.90
71081;BMP180;58740;50.672;18.690;2024-02-14T12:48:42;99381.40;;;7.90
71081;BMP180;58740;50.672;18.690;2024-02-14T12:51:36;99380.80;;;7.90
71081;BMP180;58740;50.672;18.690;2024-02-14T12:54:37;99376.60;;;7.90
71081;BMP180;58740;50.672;18.690;2024-02-14T12:57:16;99372.20;;;7.90
71081;BMP180;58740;50.672;18.690;2024-02-14T13:00:12;99381.80;;;7.90
71081;BMP180;58740;50.672;18.690;2024-02-14T13:02:53;99378.80;;;7.90
71081;BMP180;58740;50.672;18.690;2024-02-14T13:05:47;99375.80;;;7.90
71081;BMP180;58740;50.672;18.690;2024-02-14T13:08:26;99378.40;;;7.90
71081;BMP180;58740;50.672;18.690;2024-02-14T13:11:21;99381.00;;;7.90
71081;BMP180;58740;50.672;18.690;2024-02-14T13:14:00;99373.00;;;7.90
71081;BMP180;58740;50.672;18.690;2024-02-14T13:16:54;99369.80;;;7.90
71081;BMP180;58740;50.672;18.690;2024-02-14T13:19:33;99370.00;;;7.90
71081;BMP180;58740;50.672;18.690;2024-02-14T13:22:36;99371.60;;;7.90
71081;BMP180;58740;50.672;18.690;2024-02-14T13:25:16;99366.80;;;7.90
71081;BMP180;58740;50.672;18.690;2024-02-14T13:28:17;99365.40;;;7.90
71081;BMP180;58740;50.672;18.690;2024-02-14T13:30:57;99358.60;;;7.90
71081;BMP180;58740;50.672;18.690;2024-02-14T13:33:51;99364.60;;;7.90
71081;BMP180;58740;50.672;18.690;2024-02-14T13:36:31;99360.40;;;7.90
71081;BMP180;58740;50.672;18.690;2024-02-14T13:39:25;99353.80;;;7.90
71081;BMP180;58740;50.672;18.690;2024-02-14T13:42:11;99349.80;;;7.90
71081;BMP180;58740;50.672;18.690;2024-02-14T13:45:05;99346.40;;;7.90
71081;BMP180;58740;50.672;18.690;2024-02-14T13:48:05;99344.80;;;7.90
71081;BMP180;58740;50.672;18.690;2024-02-14T13:50:59;99349.20;;;7.90
71081;BMP180;58740;50.672;18.690;2024-02-14T13:53:46;99353.20;;;7.90
71081;BMP180;58740;50.672;18.690;2024-02-14T13:56:39;99349.40;;;7.90
71081;BMP180;58740;50.672;18.690;2024-02-14T13:59:19;99352.60;;;7.90
71081;BMP180;58740;50.672;18.690;2024-02-14T14:02:13;99352.00;;;7.90
71081;BMP180;58740;50.672;18.690;2024-02-14T14:04:59;99356.20;;;7.96
71081;BMP180;58740;50.672;18.690;2024-02-14T14:07:47;99351.60;;;8.00
71081;BMP180;58740;50.672;18.690;2024-02-14T14:10:37;99351.80;;;8.00
71081;BMP180;58740;50.672;18.690;2024-02-14T14:13:24;99354.40;;;8.00
71081;BMP180;58740;50.672;18.690;2024-02-14T14:16:21;99357.40;;;8.00
71081;BMP180;58740;50.672;18.690;2024-02-14T14:19:21;99355.60;;;7.94
71081;BMP180;58740;50.672;18.690;2024-02-14T14:22:07;99354.00;;;7.90
71081;BMP180;58740;50.672;18.690;2024-02-14T14:24:55;99357.40;;;7.90
71081;BMP180;58740;50.672;18.690;2024-02-14T14:27:41;99365.20;;;7.90
71081;BMP180;58740;50.672;18.690;2024-02-14T14:30:27;99359.00;;;7.90
71081;BMP180;58740;50.672;18.690;2024-02-14T14:33:14;99362.20;;;7.80
71081;BMP180;58740;50.672;18.690;2024-02-14T14:36:01;99356.20;;;7.80
71081;BMP180;58740;50.672;18.690;2024-02-14T14:38:48;99359.20;;;7.80
71081;BMP180;58740;50.672;18.690;2024-02-14T14:41:34;99357.80;;;7.80
71081;BMP180;58740;50.672;18.690;2024-02-14T14:44:20;99352.40;;;7.80
71081;BMP180;58740;50.672;18.690;2024-02-14T14:47:13;99353.20;;;7.80
71081;BMP180;58740;50.672;18.690;2024-02-14T14:49:59;99348.40;;;7.80
71081;BMP180;58740;50.672;18.690;2024-02-14T14:52:53;99353.00;;;7.80
71081;BMP180;58740;50.672;18.690;2024-02-14T14:55:55;99348.20;;;7.80
71081;BMP180;58740;50.672;18.690;2024-02-14T14:58:42;99348.00;;;7.80
71081;BMP180;58740;50.672;18.690;2024-02-14T15:01:21;99343.40;;;7.80
71081;BMP180;58740;50.672;18.690;2024-02-14T15:04:15;99348.40;;;7.80
71081;BMP180;58740;50.672;18.690;2024-02-14T15:06:55;99348.80;;;7.80
71081;BMP180;58740;50.672;18.690;2024-02-14T15:09:50;99348.00;;;7.80
71081;BMP180;58740;50.672;18.690;2024-02-14T15:12:30;99347.60;;;7.80
71081;BMP180;58740;50.672;18.690;2024-02-14T15:15:24;99345.00;;;7.80
71081;BMP180;58740;50.672;18.690;2024-02-14T15:18:05;99348.00;;;7.76
71081;BMP180;58740;50.672;18.690;2024-02-14T15:20:59;99349.80;;;7.70
71081;BMP180;58740;50.672;18.690;2024-02-14T15:23:39;99351.20;;;7.70
71081;BMP180;58740;50.672;18.690;2024-02-14T15:26:32;99349.20;;;7.70
71081;BMP180;58740;50.672;18.690;2024-02-14T15:29:27;99347.00;;;7.70
71081;BMP180;58740;50.672;18.690;2024-02-14T15:32:45;99346.20;;;7.70
71081;BMP180;58740;50.672;18.690;2024-02-14T15:36:02;99347.00;;;7.68
71081;BMP180;58740;50.672;18.690;2024-02-14T15:38:42;99341.60;;;7.60
71081;BMP180;58740;50.672;18.690;2024-02-14T15:41:42;99345.80;;;7.60
71081;BMP180;58740;50.672;18.690;2024-02-14T15:44:42;99343.00;;;7.60
71081;BMP180;58740;50.672;18.690;2024-02-14T15:47:29;99347.40;;;7.60
71081;BMP180;58740;50.672;18.690;2024-02-14T15:50:15;99343.00;;;7.50
71081;BMP180;58740;50.672;18.690;2024-02-14T15:53:09;99344.20;;;7.50
71081;BMP180;58740;50.672;18.690;2024-02-14T15:56:09;99348.20;;;7.50
71081;BMP180;58740;50.672;18.690;2024-02-14T15:59:06;99344.20;;;7.40
71081;BMP180;58740;50.672;18.690;2024-02-14T16:01:52;99342.80;;;7.40
71081;BMP180;58740;50.672;18.690;2024-02-14T16:04:40;99338.60;;;7.40
71081;BMP180;58740;50.672;18.690;2024-02-14T16:07:27;99343.40;;;7.40
71081;BMP180;58740;50.672;18.690;2024-02-14T16:10:13;99351.60;;;7.30
71081;BMP180;58740;50.672;18.690;2024-02-14T16:12:59;99351.00;;;7.30
71081;BMP180;58740;50.672;18.690;2024-02-14T16:15:46;99349.00;;;7.30
71081;BMP180;58740;50.672;18.690;2024-02-14T16:18:33;99355.80;;;7.30
71081;BMP180;58740;50.672;18.690;2024-02-14T16:21:19;99355.60;;;7.30